sensor_id;sensor_type;location;lat;lon;timestamp;P1;durP1;ratioP1;P2;durP2;ratioP2
15082;SDS011;7640;53.116;6.878;2024-01-27T00:00:03;20.43;;;4.27;;
15082;SDS011;7640;53.116;6.878;2024-01-27T00:02:32;18.97;;;4.20;;
15082;SDS011;7640;53.116;6.878;2024-01-27T00:05:01;23.50;;;4.07;;
15082;SDS011;7640;53.116;6.878;2024-01-27T00:07:30;24.67;;;4.30;;
15082;SDS011;7640;53.116;6.878;2024-01-27T00:09:59;19.80;;;4.37;;
15082;SDS011;7640;53.116;6.878;2024-01-27T00:12:29;20.73;;;4.33;;
15082;SDS011;7640;53.116;6.878;2024-01-27T00:14:57;30.27;;;4.73;;
15082;SDS011;7640;53.116;6.878;2024-01-27T00:17:26;14.63;;;3.53;;
15082;SDS011;7640;53.116;6.878;2024-01-27T00:19:55;21.50;;;4.27;;
15082;SDS011;7640;53.116;6.878;2024-01-27T00:22:23;21.43;;;4.10;;
15082;SDS011;7640;53.116;6.878;2024-01-27T00:24:52;26.13;;;4.17;;
15082;SDS011;7640;53.116;6.878;2024-01-27T00:27:21;25.47;;;5.30;;
15082;SDS011;7640;53.116;6.878;2024-01-27T00:29:50;23.27;;;4.70;;
15082;SDS011;7640;53.116;6.878;2024-01-27T00:32:19;20.77;;;4.70;;
15082;SDS011;7640;53.116;6.878;2024-01-27T00:34:48;22.83;;;4.23;;
15082;SDS011;7640;53.116;6.878;2024-01-27T00:37:17;23.33;;;4.70;;
15082;SDS011;7640;53.116;6.878;2024-01-27T00:39:46;23.13;;;4.70;;
15082;SDS011;7640;53.116;6.878;2024-01-27T00:42:14;30.47;;;5.47;;
15082;SDS011;7640;53.116;6.878;2024-01-27T00:44:45;20.67;;;4.90;;
15082;SDS011;7640;53.116;6.878;2024-01-27T00:47:15;19.83;;;4.63;;
15082;SDS011;7640;53.116;6.878;2024-01-27T00:49:44;26.77;;;5.20;;
15082;SDS011;7640;53.116;6.878;2024-01-27T00:52:13;18.43;;;4.23;;
15082;SDS011;7640;53.116;6.878;2024-01-27T00:54:42;25.67;;;4.90;;
15082;SDS011;7640;53.116;6.878;2024-01-27T00:57:11;19.80;;;4.70;;
15082;SDS011;7640;53.116;6.878;2024-01-27T00:59:40;33.20;;;5.03;;
15082;SDS011;7640;53.116;6.878;2024-01-27T01:02:08;18.87;;;4.50;;
15082;SDS011;7640;53.116;6.878;2024-01-27T01:04:38;23.53;;;5.07;;
15082;SDS011;7640;53.116;6.878;2024-01-27T01:07:09;20.87;;;4.00;;
15082;SDS011;7640;53.116;6.878;2024-01-27T01:09:37;14.90;;;4.47;;
15082;SDS011;7640;53.116;6.878;2024-01-27T01:12:06;19.80;;;4.53;;
15082;SDS011;7640;53.116;6.878;2024-01-27T01:14:36;25.67;;;5.10;;
15082;SDS011;7640;53.116;6.878;2024-01-27T01:17:06;33.10;;;5.03;;
15082;SDS011;7640;53.116;6.878;2024-01-27T01:19:35;18.73;;;4.63;;
15082;SDS011;7640;53.116;6.878;2024-01-27T01:22:06;25.27;;;4.40;;
15082;SDS011;7640;53.116;6.878;2024-01-27T01:24:38;22.23;;;4.60;;
15082;SDS011;7640;53.116;6.878;2024-01-27T01:27:07;23.73;;;4.87;;
15082;SDS011;7640;53.116;6.878;2024-01-27T01:29:36;18.10;;;5.63;;
15082;SDS011;7640;53.116;6.878;2024-01-27T01:32:04;17.60;;;5.33;;
15082;SDS011;7640;53.116;6.878;2024-01-27T01:34:33;23.40;;;4.23;;
15082;SDS011;7640;53.116;6.878;2024-01-27T01:37:02;20.00;;;4.93;;
15082;SDS011;7640;53.116;6.878;2024-01-27T01:39:32;17.73;;;4.80;;
15082;SDS011;7640;53.116;6.878;2024-01-27T01:42:01;25.17;;;4.73;;
15082;SDS011;7640;53.116;6.878;2024-01-27T01:44:30;16.03;;;4.40;;
15082;SDS011;7640;53.116;6.878;2024-01-27T01:46:59;21.73;;;5.37;;
15082;SDS011;7640;53.116;6.878;2024-01-27T01:49:28;18.73;;;3.97;;
15082;SDS011;7640;53.116;6.878;2024-01-27T01:51:57;22.20;;;4.97;;
15082;SDS011;7640;53.116;6.878;2024-01-27T01:54:26;19.53;;;5.37;;
15082;SDS011;7640;53.116;6.878;2024-01-27T01:56:56;26.03;;;4.73;;
15082;SDS011;7640;53.116;6.878;2024-01-27T01:59:26;23.53;;;5.03;;
15082;SDS011;7640;53.116;6.878;2024-01-27T02:01:55;18.07;;;4.43;;
15082;SDS011;7640;53.116;6.878;2024-01-27T02:04:23;22.93;;;4.57;;
15082;SDS011;7640;53.116;6.878;2024-01-27T02:06:52;17.47;;;4.13;;
15082;SDS011;7640;53.116;6.878;2024-01-27T02:09:20;21.47;;;4.27;;
15082;SDS011;7640;53.116;6.878;2024-01-27T02:11:49;17.97;;;4.40;;
15082;SDS011;7640;53.116;6.878;2024-01-27T02:14:19;20.63;;;4.83;;
15082;SDS011;7640;53.116;6.878;2024-01-27T02:16:51;18.00;;;5.13;;
15082;SDS011;7640;53.116;6.878;2024-01-27T02:19:20;20.57;;;4.90;;
15082;SDS011;7640;53.116;6.878;2024-01-27T02:21:49;23.97;;;4.70;;
15082;SDS011;7640;53.116;6.878;2024-01-27T02:24:19;20.27;;;4.53;;
15082;SDS011;7640;53.116;6.878;2024-01-27T02:26:47;20.70;;;4.03;;
15082;SDS011;7640;53.116;6.878;2024-01-27T02:29:16;18.57;;;4.10;;
15082;SDS011;7640;53.116;6.878;2024-01-27T02:31:46;19.43;;;4.30;;
15082;SDS011;7640;53.116;6.878;2024-01-27T02:34:14;20.07;;;4.50;;
15082;SDS011;7640;53.116;6.878;2024-01-27T02:36:43;20.53;;;4.30;;
15082;SDS011;7640;53.116;6.878;2024-01-27T02:39:12;22.10;;;4.70;;
15082;SDS011;7640;53.116;6.878;2024-01-27T02:41:43;16.40;;;4.43;;
15082;SDS011;7640;53.116;6.878;2024-01-27T02:44:11;19.47;;;4.07;;
15082;SDS011;7640;53.116;6.878;2024-01-27T02:46:40;18.60;;;4.47;;
15082;SDS011;7640;53.116;6.878;2024-01-27T02:49:10;15.30;;;4.00;;
15082;SDS011;7640;53.116;6.878;2024-01-27T02:51:39;18.07;;;4.10;;
15082;SDS011;7640;53.116;6.878;2024-01-27T02:54:08;19.07;;;4.43;;
15082;SDS011;7640;53.116;6.878;2024-01-27T02:56:37;23.60;;;4.43;;
15082;SDS011;7640;53.116;6.878;2024-01-27T02:59:07;20.83;;;4.27;;
15082;SDS011;7640;53.116;6.878;2024-01-27T03:01:35;16.57;;;3.80;;
15082;SDS011;7640;53.116;6.878;2024-01-27T03:04:04;19.63;;;4.37;;
15082;SDS011;7640;53.116;6.878;2024-01-27T03:06:33;22.30;;;4.53;;
15082;SDS011;7640;53.116;6.878;2024-01-27T03:09:01;17.87;;;4.40;;
15082;SDS011;7640;53.116;6.878;2024-01-27T03:11:30;18.93;;;4.10;;
15082;SDS011;7640;53.116;6.878;2024-01-27T03:13:59;20.23;;;4.80;;
15082;SDS011;7640;53.116;6.878;2024-01-27T03:16:29;20.27;;;5.00;;
15082;SDS011;7640;53.116;6.878;2024-01-27T03:18:58;16.73;;;3.97;;
15082;SDS011;7640;53.116;6.878;2024-01-27T03:21:27;26.00;;;4.63;;
15082;SDS011;7640;53.116;6.878;2024-01-27T03:23:55;16.87;;;3.97;;
15082;SDS011;7640;53.116;6.878;2024-01-27T03:26:24;13.93;;;3.63;;
15082;SDS011;7640;53.116;6.878;2024-01-27T03:28:52;22.17;;;4.53;;
15082;SDS011;7640;53.116;6.878;2024-01-27T03:31:21;18.73;;;3.60;;
15082;SDS011;7640;53.116;6.878;2024-01-27T03:33:51;19.83;;;4.73;;
15082;SDS011;7640;53.116;6.878;2024-01-27T03:36:20;19.57;;;3.70;;
15082;SDS011;7640;53.116;6.878;2024-01-27T03:38:48;17.63;;;4.30;;
15082;SDS011;7640;53.116;6.878;2024-01-27T03:41:17;26.27;;;4.33;;
15082;SDS011;7640;53.116;6.878;2024-01-27T03:43:53;20.87;;;5.10;;
15082;SDS011;7640;53.116;6.878;2024-01-27T03:46:22;23.67;;;4.70;;
15082;SDS011;7640;53.116;6.878;2024-01-27T03:48:52;17.10;;;3.50;;
15082;SDS011;7640;53.116;6.878;2024-01-27T03:51:21;19.37;;;4.33;;
15082;SDS011;7640;53.116;6.878;2024-01-27T03:53:50;12.57;;;3.93;;
15082;SDS011;7640;53.116;6.878;2024-01-27T03:56:20;24.03;;;4.20;;
15082;SDS011;7640;53.116;6.878;2024-01-27T03:58:50;19.63;;;3.50;;
15082;SDS011;7640;53.116;6.878;2024-01-27T04:01:20;17.03;;;4.23;;
15082;SDS011;7640;53.116;6.878;2024-01-27T04:03:49;20.97;;;4.10;;
15082;SDS011;7640;53.116;6.878;2024-01-27T04:06:19;17.93;;;4.00;;
15082;SDS011;7640;53.116;6.878;2024-01-27T04:08:48;18.73;;;3.90;;
15082;SDS011;7640;53.116;6.878;2024-01-27T04:11:19;16.70;;;3.67;;
15082;SDS011;7640;53.116;6.878;2024-01-27T04:13:49;17.43;;;3.63;;
15082;SDS011;7640;53.116;6.878;2024-01-27T04:16:18;17.10;;;4.10;;
15082;SDS011;7640;53.116;6.878;2024-01-27T04:18:47;19.20;;;3.27;;
15082;SDS011;7640;53.116;6.878;2024-01-27T04:21:17;18.07;;;4.13;;
15082;SDS011;7640;53.116;6.878;2024-01-27T04:23:46;25.03;;;3.63;;
15082;SDS011;7640;53.116;6.878;2024-01-27T04:26:14;24.70;;;4.10;;
15082;SDS011;7640;53.116;6.878;2024-01-27T04:28:43;20.17;;;4.13;;
15082;SDS011;7640;53.116;6.878;2024-01-27T04:31:12;18.10;;;4.07;;
15082;SDS011;7640;53.116;6.878;2024-01-27T04:33:41;18.60;;;4.40;;
15082;SDS011;7640;53.116;6.878;2024-01-27T04:36:11;14.63;;;3.60;;
15082;SDS011;7640;53.116;6.878;2024-01-27T04:38:43;20.97;;;3.87;;
15082;SDS011;7640;53.116;6.878;2024-01-27T04:41:12;17.77;;;3.80;;
15082;SDS011;7640;53.116;6.878;2024-01-27T04:43:41;15.63;;;3.77;;
15082;SDS011;7640;53.116;6.878;2024-01-27T04:46:10;16.87;;;3.63;;
15082;SDS011;7640;53.116;6.878;2024-01-27T04:48:38;12.80;;;3.47;;
15082;SDS011;7640;53.116;6.878;2024-01-27T04:51:07;15.20;;;3.60;;
15082;SDS011;7640;53.116;6.878;2024-01-27T04:53:36;16.43;;;3.17;;
15082;SDS011;7640;53.116;6.878;2024-01-27T04:56:06;19.20;;;3.90;;
15082;SDS011;7640;53.116;6.878;2024-01-27T04:58:36;20.83;;;3.97;;
15082;SDS011;7640;53.116;6.878;2024-01-27T05:01:04;16.97;;;4.77;;
15082;SDS011;7640;53.116;6.878;2024-01-27T05:03:33;17.67;;;3.97;;
15082;SDS011;7640;53.116;6.878;2024-01-27T05:06:02;21.10;;;4.47;;
15082;SDS011;7640;53.116;6.878;2024-01-27T05:08:31;17.87;;;3.17;;
15082;SDS011;7640;53.116;6.878;2024-01-27T05:11:01;25.53;;;4.50;;
15082;SDS011;7640;53.116;6.878;2024-01-27T05:13:31;16.67;;;3.30;;
15082;SDS011;7640;53.116;6.878;2024-01-27T05:16:00;19.03;;;3.80;;
15082;SDS011;7640;53.116;6.878;2024-01-27T05:18:28;19.77;;;3.70;;
15082;SDS011;7640;53.116;6.878;2024-01-27T05:20:57;23.10;;;4.17;;
15082;SDS011;7640;53.116;6.878;2024-01-27T05:23:26;16.00;;;3.67;;
15082;SDS011;7640;53.116;6.878;2024-01-27T05:25:55;16.20;;;3.50;;
15082;SDS011;7640;53.116;6.878;2024-01-27T05:28:23;17.90;;;3.80;;
15082;SDS011;7640;53.116;6.878;2024-01-27T05:30:53;21.43;;;4.10;;
15082;SDS011;7640;53.116;6.878;2024-01-27T05:33:22;22.40;;;4.20;;
15082;SDS011;7640;53.116;6.878;2024-01-27T05:35:54;17.40;;;3.80;;
15082;SDS011;7640;53.116;6.878;2024-01-27T05:38:22;22.20;;;4.00;;
15082;SDS011;7640;53.116;6.878;2024-01-27T05:40:52;19.17;;;4.03;;
15082;SDS011;7640;53.116;6.878;2024-01-27T05:43:21;29.70;;;4.43;;
15082;SDS011;7640;53.116;6.878;2024-01-27T05:45:50;24.73;;;4.10;;
15082;SDS011;7640;53.116;6.878;2024-01-27T05:48:19;16.47;;;3.77;;
15082;SDS011;7640;53.116;6.878;2024-01-27T05:50:54;14.30;;;3.70;;
15082;SDS011;7640;53.116;6.878;2024-01-27T05:53:23;21.23;;;3.93;;
15082;SDS011;7640;53.116;6.878;2024-01-27T05:55:52;18.03;;;3.60;;
15082;SDS011;7640;53.116;6.878;2024-01-27T05:58:20;18.60;;;3.97;;
15082;SDS011;7640;53.116;6.878;2024-01-27T06:00:49;18.40;;;4.13;;
15082;SDS011;7640;53.116;6.878;2024-01-27T06:03:17;15.50;;;3.83;;
15082;SDS011;7640;53.116;6.878;2024-01-27T06:05:47;20.33;;;4.13;;
15082;SDS011;7640;53.116;6.878;2024-01-27T06:08:16;19.97;;;4.10;;
15082;SDS011;7640;53.116;6.878;2024-01-27T06:10:46;14.27;;;3.70;;
15082;SDS011;7640;53.116;6.878;2024-01-27T06:13:14;17.33;;;3.97;;
15082;SDS011;7640;53.116;6.878;2024-01-27T06:15:47;20.53;;;3.70;;
15082;SDS011;7640;53.116;6.878;2024-01-27T06:18:15;23.93;;;4.87;;
15082;SDS011;7640;53.116;6.878;2024-01-27T06:20:45;23.03;;;4.60;;
15082;SDS011;7640;53.116;6.878;2024-01-27T06:23:14;19.63;;;4.30;;
15082;SDS011;7640;53.116;6.878;2024-01-27T06:25:43;20.47;;;6.27;;
15082;SDS011;7640;53.116;6.878;2024-01-27T06:28:12;22.27;;;5.07;;
15082;SDS011;7640;53.116;6.878;2024-01-27T06:30:41;17.27;;;4.23;;
15082;SDS011;7640;53.116;6.878;2024-01-27T06:33:10;21.30;;;4.40;;
15082;SDS011;7640;53.116;6.878;2024-01-27T06:35:39;22.73;;;5.17;;
15082;SDS011;7640;53.116;6.878;2024-01-27T06:38:10;18.60;;;4.17;;
15082;SDS011;7640;53.116;6.878;2024-01-27T06:40:38;20.27;;;4.27;;
15082;SDS011;7640;53.116;6.878;2024-01-27T06:43:07;17.93;;;3.83;;
15082;SDS011;7640;53.116;6.878;2024-01-27T06:45:36;22.73;;;4.80;;
15082;SDS011;7640;53.116;6.878;2024-01-27T06:48:05;17.50;;;4.50;;
15082;SDS011;7640;53.116;6.878;2024-01-27T06:50:34;21.00;;;4.73;;
15082;SDS011;7640;53.116;6.878;2024-01-27T06:53:04;14.77;;;4.90;;
15082;SDS011;7640;53.116;6.878;2024-01-27T06:55:33;21.37;;;4.70;;
15082;SDS011;7640;53.116;6.878;2024-01-27T06:58:05;26.07;;;5.97;;
15082;SDS011;7640;53.116;6.878;2024-01-27T07:00:34;24.47;;;4.97;;
15082;SDS011;7640;53.116;6.878;2024-01-27T07:03:04;17.07;;;4.80;;
15082;SDS011;7640;53.116;6.878;2024-01-27T07:05:35;18.47;;;5.60;;
15082;SDS011;7640;53.116;6.878;2024-01-27T07:08:07;22.23;;;5.50;;
15082;SDS011;7640;53.116;6.878;2024-01-27T07:10:37;26.40;;;5.43;;
15082;SDS011;7640;53.116;6.878;2024-01-27T07:13:06;15.90;;;4.43;;
15082;SDS011;7640;53.116;6.878;2024-01-27T07:15:34;17.23;;;4.60;;
15082;SDS011;7640;53.116;6.878;2024-01-27T07:18:04;16.77;;;4.57;;
15082;SDS011;7640;53.116;6.878;2024-01-27T07:20:37;17.83;;;5.07;;
15082;SDS011;7640;53.116;6.878;2024-01-27T07:23:06;20.70;;;5.10;;
15082;SDS011;7640;53.116;6.878;2024-01-27T07:25:34;19.60;;;6.43;;
15082;SDS011;7640;53.116;6.878;2024-01-27T07:28:05;20.13;;;5.27;;
15082;SDS011;7640;53.116;6.878;2024-01-27T07:30:34;22.30;;;5.50;;
15082;SDS011;7640;53.116;6.878;2024-01-27T07:33:04;19.80;;;5.70;;
15082;SDS011;7640;53.116;6.878;2024-01-27T07:35:32;23.27;;;5.80;;
15082;SDS011;7640;53.116;6.878;2024-01-27T07:38:01;25.93;;;6.33;;
15082;SDS011;7640;53.116;6.878;2024-01-27T07:40:29;23.37;;;6.33;;
15082;SDS011;7640;53.116;6.878;2024-01-27T07:42:58;16.93;;;6.47;;
15082;SDS011;7640;53.116;6.878;2024-01-27T07:45:28;25.73;;;6.93;;
15082;SDS011;7640;53.116;6.878;2024-01-27T07:47:57;23.27;;;7.20;;
15082;SDS011;7640;53.116;6.878;2024-01-27T07:50:27;23.97;;;6.83;;
15082;SDS011;7640;53.116;6.878;2024-01-27T07:52:57;25.87;;;7.83;;
15082;SDS011;7640;53.116;6.878;2024-01-27T07:55:26;25.23;;;6.67;;
15082;SDS011;7640;53.116;6.878;2024-01-27T07:57:55;23.47;;;6.60;;
15082;SDS011;7640;53.116;6.878;2024-01-27T08:00:24;28.43;;;7.27;;
15082;SDS011;7640;53.116;6.878;2024-01-27T08:02:55;23.80;;;7.10;;
15082;SDS011;7640;53.116;6.878;2024-01-27T08:05:23;18.67;;;8.20;;
15082;SDS011;7640;53.116;6.878;2024-01-27T08:07:52;25.70;;;7.73;;
15082;SDS011;7640;53.116;6.878;2024-01-27T08:10:20;23.40;;;8.53;;
15082;SDS011;7640;53.116;6.878;2024-01-27T08:12:50;25.53;;;7.20;;
15082;SDS011;7640;53.116;6.878;2024-01-27T08:15:18;24.27;;;8.07;;
15082;SDS011;7640;53.116;6.878;2024-01-27T08:17:47;30.40;;;8.40;;
15082;SDS011;7640;53.116;6.878;2024-01-27T08:20:17;26.77;;;8.33;;
15082;SDS011;7640;53.116;6.878;2024-01-27T08:22:45;25.13;;;8.60;;
15082;SDS011;7640;53.116;6.878;2024-01-27T08:25:16;25.77;;;8.43;;
15082;SDS011;7640;53.116;6.878;2024-01-27T08:27:45;20.10;;;8.67;;
15082;SDS011;7640;53.116;6.878;2024-01-27T08:30:14;25.83;;;8.27;;
15082;SDS011;7640;53.116;6.878;2024-01-27T08:32:43;26.13;;;9.00;;
15082;SDS011;7640;53.116;6.878;2024-01-27T08:35:12;24.27;;;9.07;;
15082;SDS011;7640;53.116;6.878;2024-01-27T08:37:44;28.13;;;9.33;;
15082;SDS011;7640;53.116;6.878;2024-01-27T08:40:13;26.60;;;9.37;;
15082;SDS011;7640;53.116;6.878;2024-01-27T08:42:43;28.07;;;10.63;;
15082;SDS011;7640;53.116;6.878;2024-01-27T08:45:12;28.33;;;10.77;;
15082;SDS011;7640;53.116;6.878;2024-01-27T08:47:42;26.93;;;9.43;;
15082;SDS011;7640;53.116;6.878;2024-01-27T08:50:11;28.33;;;9.57;;
15082;SDS011;7640;53.116;6.878;2024-01-27T08:52:41;22.40;;;9.47;;
15082;SDS011;7640;53.116;6.878;2024-01-27T08:55:11;25.30;;;10.13;;
15082;SDS011;7640;53.116;6.878;2024-01-27T08:57:41;27.37;;;10.30;;
15082;SDS011;7640;53.116;6.878;2024-01-27T09:00:10;31.70;;;11.20;;
15082;SDS011;7640;53.116;6.878;2024-01-27T09:02:42;31.97;;;9.73;;
15082;SDS011;7640;53.116;6.878;2024-01-27T09:05:11;27.20;;;10.83;;
15082;SDS011;7640;53.116;6.878;2024-01-27T09:07:41;27.97;;;10.93;;
15082;SDS011;7640;53.116;6.878;2024-01-27T09:10:11;31.57;;;11.00;;
15082;SDS011;7640;53.116;6.878;2024-01-27T09:12:42;33.90;;;12.10;;
15082;SDS011;7640;53.116;6.878;2024-01-27T09:15:10;21.87;;;10.30;;
15082;SDS011;7640;53.116;6.878;2024-01-27T09:17:39;27.27;;;12.37;;
15082;SDS011;7640;53.116;6.878;2024-01-27T09:20:10;23.40;;;11.97;;
15082;SDS011;7640;53.116;6.878;2024-01-27T09:22:39;29.20;;;12.13;;
15082;SDS011;7640;53.116;6.878;2024-01-27T09:25:08;30.97;;;13.03;;
15082;SDS011;7640;53.116;6.878;2024-01-27T09:27:38;30.07;;;12.90;;
15082;SDS011;7640;53.116;6.878;2024-01-27T09:30:08;28.23;;;11.83;;
15082;SDS011;7640;53.116;6.878;2024-01-27T09:32:37;25.30;;;11.57;;
15082;SDS011;7640;53.116;6.878;2024-01-27T09:35:07;23.47;;;12.07;;
15082;SDS011;7640;53.116;6.878;2024-01-27T09:37:35;27.03;;;11.70;;
15082;SDS011;7640;53.116;6.878;2024-01-27T09:40:05;24.83;;;11.37;;
15082;SDS011;7640;53.116;6.878;2024-01-27T09:42:35;35.73;;;12.47;;
15082;SDS011;7640;53.116;6.878;2024-01-27T09:45:13;24.07;;;11.43;;
15082;SDS011;7640;53.116;6.878;2024-01-27T09:47:44;25.43;;;12.10;;
15082;SDS011;7640;53.116;6.878;2024-01-27T09:50:14;25.67;;;10.33;;
15082;SDS011;7640;53.116;6.878;2024-01-27T09:52:45;27.13;;;12.03;;
15082;SDS011;7640;53.116;6.878;2024-01-27T09:55:20;31.10;;;12.37;;
15082;SDS011;7640;53.116;6.878;2024-01-27T09:57:50;27.63;;;11.20;;
15082;SDS011;7640;53.116;6.878;2024-01-27T10:00:19;26.10;;;12.10;;
15082;SDS011;7640;53.116;6.878;2024-01-27T10:02:49;24.20;;;11.97;;
15082;SDS011;7640;53.116;6.878;2024-01-27T10:05:19;33.73;;;12.30;;
15082;SDS011;7640;53.116;6.878;2024-01-27T10:07:48;25.13;;;11.80;;
15082;SDS011;7640;53.116;6.878;2024-01-27T10:10:20;22.10;;;11.37;;
15082;SDS011;7640;53.116;6.878;2024-01-27T10:12:50;29.83;;;12.93;;
15082;SDS011;7640;53.116;6.878;2024-01-27T10:15:21;26.60;;;12.40;;
15082;SDS011;7640;53.116;6.878;2024-01-27T10:17:50;22.00;;;11.03;;
15082;SDS011;7640;53.116;6.878;2024-01-27T10:20:19;25.23;;;11.37;;
15082;SDS011;7640;53.116;6.878;2024-01-27T10:22:48;26.97;;;11.73;;
15082;SDS011;7640;53.116;6.878;2024-01-27T10:25:16;28.63;;;11.80;;
15082;SDS011;7640;53.116;6.878;2024-01-27T10:27:45;25.57;;;11.73;;
15082;SDS011;7640;53.116;6.878;2024-01-27T10:30:16;19.10;;;9.13;;
15082;SDS011;7640;53.116;6.878;2024-01-27T10:32:54;25.43;;;11.60;;
15082;SDS011;7640;53.116;6.878;2024-01-27T10:35:24;25.60;;;11.20;;
15082;SDS011;7640;53.116;6.878;2024-01-27T10:37:54;26.20;;;11.30;;
15082;SDS011;7640;53.116;6.878;2024-01-27T10:40:25;23.67;;;11.20;;
15082;SDS011;7640;53.116;6.878;2024-01-27T10:42:58;19.60;;;10.13;;
15082;SDS011;7640;53.116;6.878;2024-01-27T10:45:35;19.80;;;10.17;;
15082;SDS011;7640;53.116;6.878;2024-01-27T10:48:07;22.70;;;11.23;;
15082;SDS011;7640;53.116;6.878;2024-01-27T10:50:38;26.47;;;10.93;;
15082;SDS011;7640;53.116;6.878;2024-01-27T10:53:16;26.60;;;11.57;;
15082;SDS011;7640;53.116;6.878;2024-01-27T10:55:52;20.70;;;11.13;;
15082;SDS011;7640;53.116;6.878;2024-01-27T10:58:22;24.53;;;11.10;;
15082;SDS011;7640;53.116;6.878;2024-01-27T11:00:53;26.57;;;11.23;;
15082;SDS011;7640;53.116;6.878;2024-01-27T11:03:24;22.27;;;11.10;;
15082;SDS011;7640;53.116;6.878;2024-01-27T11:05:56;20.80;;;9.57;;
15082;SDS011;7640;53.116;6.878;2024-01-27T11:08:25;23.83;;;11.10;;
15082;SDS011;7640;53.116;6.878;2024-01-27T11:10:56;22.50;;;10.53;;
15082;SDS011;7640;53.116;6.878;2024-01-27T11:13:26;22.47;;;9.93;;
15082;SDS011;7640;53.116;6.878;2024-01-27T11:15:57;23.73;;;11.47;;
15082;SDS011;7640;53.116;6.878;2024-01-27T11:18:26;21.67;;;10.03;;
15082;SDS011;7640;53.116;6.878;2024-01-27T11:20:58;24.27;;;9.87;;
15082;SDS011;7640;53.116;6.878;2024-01-27T11:23:31;22.37;;;9.37;;
15082;SDS011;7640;53.116;6.878;2024-01-27T11:26:02;22.37;;;8.90;;
15082;SDS011;7640;53.116;6.878;2024-01-27T11:28:32;22.80;;;9.10;;
15082;SDS011;7640;53.116;6.878;2024-01-27T11:31:07;22.23;;;8.97;;
15082;SDS011;7640;53.116;6.878;2024-01-27T11:33:42;22.20;;;7.40;;
15082;SDS011;7640;53.116;6.878;2024-01-27T11:36:18;17.93;;;7.50;;
15082;SDS011;7640;53.116;6.878;2024-01-27T11:38:51;20.33;;;7.57;;
15082;SDS011;7640;53.116;6.878;2024-01-27T11:41:26;20.03;;;7.30;;
15082;SDS011;7640;53.116;6.878;2024-01-27T11:43:56;16.20;;;7.73;;
15082;SDS011;7640;53.116;6.878;2024-01-27T11:46:29;25.13;;;7.40;;
15082;SDS011;7640;53.116;6.878;2024-01-27T11:48:57;24.33;;;8.30;;
15082;SDS011;7640;53.116;6.878;2024-01-27T11:51:26;25.50;;;8.03;;
15082;SDS011;7640;53.116;6.878;2024-01-27T11:53:55;21.40;;;7.97;;
15082;SDS011;7640;53.116;6.878;2024-01-27T11:56:23;21.13;;;7.13;;
15082;SDS011;7640;53.116;6.878;2024-01-27T11:58:53;20.40;;;6.93;;
15082;SDS011;7640;53.116;6.878;2024-01-27T12:01:21;16.33;;;6.33;;
15082;SDS011;7640;53.116;6.878;2024-01-27T12:03:52;20.97;;;6.93;;
15082;SDS011;7640;53.116;6.878;2024-01-27T12:06:21;22.87;;;7.30;;
15082;SDS011;7640;53.116;6.878;2024-01-27T12:08:52;17.30;;;6.30;;
15082;SDS011;7640;53.116;6.878;2024-01-27T12:11:24;19.17;;;7.20;;
15082;SDS011;7640;53.116;6.878;2024-01-27T12:13:53;17.43;;;7.40;;
15082;SDS011;7640;53.116;6.878;2024-01-27T12:16:21;23.03;;;7.30;;
15082;SDS011;7640;53.116;6.878;2024-01-27T12:18:55;19.73;;;6.77;;
15082;SDS011;7640;53.116;6.878;2024-01-27T12:21:23;11.83;;;6.60;;
15082;SDS011;7640;53.116;6.878;2024-01-27T12:23:53;17.53;;;5.70;;
15082;SDS011;7640;53.116;6.878;2024-01-27T12:26:23;19.43;;;5.70;;
15082;SDS011;7640;53.116;6.878;2024-01-27T12:28:54;19.53;;;6.03;;
15082;SDS011;7640;53.116;6.878;2024-01-27T12:31:24;16.93;;;5.90;;
15082;SDS011;7640;53.116;6.878;2024-01-27T12:33:55;14.77;;;5.60;;
15082;SDS011;7640;53.116;6.878;2024-01-27T12:36:26;16.10;;;5.97;;
15082;SDS011;7640;53.116;6.878;2024-01-27T12:38:56;16.93;;;5.40;;
15082;SDS011;7640;53.116;6.878;2024-01-27T12:41:27;14.10;;;5.70;;
15082;SDS011;7640;53.116;6.878;2024-01-27T12:43:59;16.50;;;5.40;;
15082;SDS011;7640;53.116;6.878;2024-01-27T12:46:28;14.63;;;5.00;;
15082;SDS011;7640;53.116;6.878;2024-01-27T12:48:58;15.07;;;5.27;;
15082;SDS011;7640;53.116;6.878;2024-01-27T12:51:27;17.93;;;6.03;;
15082;SDS011;7640;53.116;6.878;2024-01-27T12:53:56;17.73;;;5.50;;
15082;SDS011;7640;53.116;6.878;2024-01-27T12:56:24;14.53;;;5.57;;
15082;SDS011;7640;53.116;6.878;2024-01-27T12:58:53;18.60;;;5.67;;
15082;SDS011;7640;53.116;6.878;2024-01-27T13:01:21;14.80;;;5.60;;
15082;SDS011;7640;53.116;6.878;2024-01-27T13:03:50;12.67;;;5.10;;
15082;SDS011;7640;53.116;6.878;2024-01-27T13:06:20;19.00;;;6.00;;
15082;SDS011;7640;53.116;6.878;2024-01-27T13:08:50;18.40;;;5.40;;
15082;SDS011;7640;53.116;6.878;2024-01-27T13:11:19;17.17;;;6.17;;
15082;SDS011;7640;53.116;6.878;2024-01-27T13:13:48;17.17;;;5.27;;
15082;SDS011;7640;53.116;6.878;2024-01-27T13:16:16;15.23;;;6.47;;
15082;SDS011;7640;53.116;6.878;2024-01-27T13:18:45;17.20;;;5.17;;
15082;SDS011;7640;53.116;6.878;2024-01-27T13:21:14;18.03;;;5.67;;
15082;SDS011;7640;53.116;6.878;2024-01-27T13:23:45;15.57;;;4.47;;
15082;SDS011;7640;53.116;6.878;2024-01-27T13:26:14;15.33;;;4.53;;
15082;SDS011;7640;53.116;6.878;2024-01-27T13:28:45;14.00;;;4.30;;
15082;SDS011;7640;53.116;6.878;2024-01-27T13:31:16;13.20;;;4.27;;
15082;SDS011;7640;53.116;6.878;2024-01-27T13:33:46;16.07;;;4.30;;
15082;SDS011;7640;53.116;6.878;2024-01-27T13:36:15;11.80;;;4.23;;
15082;SDS011;7640;53.116;6.878;2024-01-27T13:38:46;14.87;;;5.20;;
15082;SDS011;7640;53.116;6.878;2024-01-27T13:41:15;12.77;;;4.17;;
15082;SDS011;7640;53.116;6.878;2024-01-27T13:43:45;15.00;;;4.43;;
15082;SDS011;7640;53.116;6.878;2024-01-27T13:46:15;15.07;;;4.03;;
15082;SDS011;7640;53.116;6.878;2024-01-27T13:48:45;19.03;;;4.40;;
15082;SDS011;7640;53.116;6.878;2024-01-27T13:51:16;18.27;;;5.50;;
15082;SDS011;7640;53.116;6.878;2024-01-27T13:53:46;10.17;;;4.50;;
15082;SDS011;7640;53.116;6.878;2024-01-27T13:56:15;15.93;;;4.50;;
15082;SDS011;7640;53.116;6.878;2024-01-27T13:58:44;11.87;;;4.17;;
15082;SDS011;7640;53.116;6.878;2024-01-27T14:01:13;14.57;;;3.87;;
15082;SDS011;7640;53.116;6.878;2024-01-27T14:03:42;17.13;;;4.50;;
15082;SDS011;7640;53.116;6.878;2024-01-27T14:06:11;12.67;;;4.27;;
15082;SDS011;7640;53.116;6.878;2024-01-27T14:08:40;16.70;;;4.83;;
15082;SDS011;7640;53.116;6.878;2024-01-27T14:11:11;13.97;;;4.60;;
15082;SDS011;7640;53.116;6.878;2024-01-27T14:13:41;12.87;;;3.53;;
15082;SDS011;7640;53.116;6.878;2024-01-27T14:16:13;12.93;;;3.77;;
15082;SDS011;7640;53.116;6.878;2024-01-27T14:18:47;11.57;;;3.90;;
15082;SDS011;7640;53.116;6.878;2024-01-27T14:21:16;12.70;;;3.80;;
15082;SDS011;7640;53.116;6.878;2024-01-27T14:23:45;11.37;;;4.43;;
15082;SDS011;7640;53.116;6.878;2024-01-27T14:26:15;12.43;;;4.17;;
15082;SDS011;7640;53.116;6.878;2024-01-27T14:28:44;10.73;;;2.90;;
15082;SDS011;7640;53.116;6.878;2024-01-27T14:31:13;11.40;;;3.30;;
15082;SDS011;7640;53.116;6.878;2024-01-27T14:33:42;14.63;;;4.37;;
15082;SDS011;7640;53.116;6.878;2024-01-27T14:36:11;11.53;;;3.57;;
15082;SDS011;7640;53.116;6.878;2024-01-27T14:38:41;17.20;;;4.53;;
15082;SDS011;7640;53.116;6.878;2024-01-27T14:41:10;15.17;;;4.13;;
15082;SDS011;7640;53.116;6.878;2024-01-27T14:43:40;12.33;;;3.57;;
15082;SDS011;7640;53.116;6.878;2024-01-27T14:46:10;14.77;;;3.43;;
15082;SDS011;7640;53.116;6.878;2024-01-27T14:48:40;10.13;;;3.53;;
15082;SDS011;7640;53.116;6.878;2024-01-27T14:51:12;17.87;;;3.67;;
15082;SDS011;7640;53.116;6.878;2024-01-27T14:53:41;13.43;;;4.67;;
15082;SDS011;7640;53.116;6.878;2024-01-27T14:56:09;12.70;;;4.53;;
15082;SDS011;7640;53.116;6.878;2024-01-27T14:58:38;22.33;;;5.00;;